Time,TemperatureF,DewpointF,PressureIn,WindDirection,WindDirectionDegrees,WindSpeedMPH,WindSpeedGustMPH,Humidity,HourlyPrecipIn,Conditions,Clouds,dailyrainin,SoftwareType,DateUTC
2013-01-13 00:00:00,36.9,33.0,29.91,NNW,330,0.0,3.0,85,0.03,,,0.00,weatherlink.com 1.10,2013-01-13 05:00:00,
2013-01-13 00:15:00,36.4,32.0,29.91,NE,36,0.0,2.0,85,0.03,,,0.01,weatherlink.com 1.10,2013-01-13 05:15:00,
2013-01-13 00:30:00,36.0,32.0,29.89,ENE,72,0.0,3.0,84,0.04,,,0.02,weatherlink.com 1.10,2013-01-13 05:30:00,
2013-01-13 00:45:00,35.7,31.0,29.87,NNW,347,1.0,2.0,84,0.04,,,0.03,weatherlink.com 1.10,2013-01-13 05:45:00,
2013-01-13 01:00:00,35.5,31.0,29.87,NE,55,0.0,0.0,83,0.03,,,0.03,weatherlink.com 1.10,2013-01-13 06:00:00,
2013-01-13 01:15:00,35.3,31.0,29.86,NE,37,0.0,0.0,83,0.03,,,0.04,weatherlink.com 1.10,2013-01-13 06:15:00,
2013-01-13 01:30:00,35.3,31.0,29.87,NNE,18,0.0,0.0,83,0.03,,,0.05,weatherlink.com 1.10,2013-01-13 06:30:00,
2013-01-13 01:45:00,35.2,31.0,29.86,NE,42,0.0,0.0,83,0.03,,,0.06,weatherlink.com 1.10,2013-01-13 06:45:00,
2013-01-13 02:00:00,35.1,30.0,29.86,NNW,330,0.0,4.0,83,0.05,,,0.08,weatherlink.com 1.10,2013-01-13 07:00:00,
2013-01-13 02:15:00,34.9,30.0,29.86,North,358,0.0,2.0,82,0.05,,,0.09,weatherlink.com 1.10,2013-01-13 07:15:00,
2013-01-13 02:30:00,35.0,30.0,29.87,NNW,338,0.0,0.0,82,0.06,,,0.11,weatherlink.com 1.10,2013-01-13 07:30:00,
2013-01-13 02:45:00,34.9,30.0,29.87,NE,44,0.0,0.0,82,0.06,,,0.12,weatherlink.com 1.10,2013-01-13 07:45:00,
2013-01-13 03:00:00,34.9,30.0,29.89,NNW,330,0.0,0.0,82,0.04,,,0.12,weatherlink.com 1.10,2013-01-13 08:00:00,
2013-01-13 03:15:00,34.9,30.0,29.89,NW,326,0.0,0.0,82,0.06,,,0.15,weatherlink.com 1.10,2013-01-13 08:15:00,
2013-01-13 03:30:00,34.8,30.0,29.90,NNW,332,0.0,0.0,81,0.05,,,0.16,weatherlink.com 1.10,2013-01-13 08:30:00,
2013-01-13 03:45:00,34.7,29.0,29.90,NW,326,0.0,0.0,81,0.07,,,0.19,weatherlink.com 1.10,2013-01-13 08:45:00,
2013-01-13 04:00:00,34.4,29.0,29.89,NW,321,0.0,0.0,81,0.09,,,0.21,weatherlink.com 1.10,2013-01-13 09:00:00,
2013-01-13 04:15:00,34.2,29.0,29.87,NNE,18,0.0,0.0,81,0.07,,,0.22,weatherlink.com 1.10,2013-01-13 09:15:00,
2013-01-13 04:30:00,34.1,29.0,29.86,North,351,0.0,0.0,81,0.06,,,0.22,weatherlink.com 1.10,2013-01-13 09:30:00,
2013-01-13 04:45:00,34.1,29.0,29.86,North,350,0.0,0.0,81,0.03,,,0.22,weatherlink.com 1.10,2013-01-13 09:45:00,
2013-01-13 05:00:00,34.1,29.0,29.86,North,350,0.0,0.0,81,0.01,,,0.22,weatherlink.com 1.10,2013-01-13 10:00:00,
2013-01-13 05:15:00,34.3,29.0,29.86,West,269,0.0,0.0,81,0.00,,,0.22,weatherlink.com 1.10,2013-01-13 10:15:00,
2013-01-13 05:30:00,34.1,29.0,29.85,NNW,333,0.0,0.0,81,0.00,,,0.22,weatherlink.com 1.10,2013-01-13 10:30:00,
2013-01-13 05:45:00,34.3,29.0,29.86,SW,228,0.0,0.0,81,0.00,,,0.22,weatherlink.com 1.10,2013-01-13 10:45:00,
2013-01-13 06:00:00,34.1,29.0,29.85,NW,304,0.0,0.0,81,0.00,,,0.22,weatherlink.com 1.10,2013-01-13 11:00:00,
2013-01-13 06:16:00,34.2,29.0,29.87,West,266,0.0,0.0,81,0.00,,,0.22,weatherlink.com 1.10,2013-01-13 11:16:00,
2013-01-13 06:31:00,34.0,29.0,29.85,NW,304,0.0,0.0,81,0.00,,,0.22,weatherlink.com 1.10,2013-01-13 11:31:00,
2013-01-13 06:46:00,33.9,29.0,29.85,NW,309,0.0,0.0,81,0.00,,,0.22,weatherlink.com 1.10,2013-01-13 11:46:00,
2013-01-13 07:01:00,34.0,29.0,29.85,NNW,332,0.0,0.0,81,0.00,,,0.22,weatherlink.com 1.10,2013-01-13 12:01:00,
2013-01-13 07:16:00,33.9,29.0,29.87,WNW,297,0.0,0.0,81,0.00,,,0.22,weatherlink.com 1.10,2013-01-13 12:16:00,
2013-01-13 07:31:00,34.0,29.0,29.90,WNW,282,0.0,6.0,81,0.00,,,0.22,weatherlink.com 1.10,2013-01-13 12:31:00,
2013-01-13 07:46:00,33.7,28.0,29.90,NW,305,2.0,7.0,81,0.00,,,0.22,weatherlink.com 1.10,2013-01-13 12:46:00,
2013-01-13 08:01:00,33.6,29.0,29.91,West,263,1.0,9.0,82,0.00,,,0.22,weatherlink.com 1.10,2013-01-13 13:01:00,
2013-01-13 08:16:00,33.5,28.0,29.92,WNW,298,4.0,7.0,81,0.01,,,0.23,weatherlink.com 1.10,2013-01-13 13:16:00,
2013-01-13 08:31:00,33.3,28.0,29.92,NW,317,2.0,7.0,81,0.01,,,0.23,weatherlink.com 1.10,2013-01-13 13:31:00,
2013-01-13 08:46:00,33.0,28.0,29.92,NW,309,1.0,7.0,81,0.01,,,0.23,weatherlink.com 1.10,2013-01-13 13:46:00,
2013-01-13 09:01:00,33.0,28.0,29.91,WNW,289,3.0,5.0,81,0.01,,,0.23,weatherlink.com 1.10,2013-01-13 14:01:00,
2013-01-13 09:16:00,33.1,28.0,29.93,West,281,0.0,4.0,81,0.00,,,0.23,weatherlink.com 1.10,2013-01-13 14:16:00,
2013-01-13 09:31:00,33.1,28.0,29.94,WNW,291,0.0,4.0,81,0.00,,,0.23,weatherlink.com 1.10,2013-01-13 14:31:00,
2013-01-13 09:46:00,33.1,28.0,29.95,WNW,290,0.0,5.0,82,0.00,,,0.23,weatherlink.com 1.10,2013-01-13 14:46:00,
2013-01-13 10:01:00,33.1,28.0,29.95,West,273,2.0,5.0,82,0.00,,,0.23,weatherlink.com 1.10,2013-01-13 15:01:00,
2013-01-13 10:16:00,32.8,28.0,29.94,NW,317,0.0,5.0,82,0.00,,,0.23,weatherlink.com 1.10,2013-01-13 15:16:00,
2013-01-13 10:31:00,32.4,28.0,29.96,North,353,4.0,6.0,82,0.00,,,0.23,weatherlink.com 1.10,2013-01-13 15:31:00,
2013-01-13 10:46:00,32.2,27.0,29.95,NW,317,3.0,8.0,82,0.00,,,0.23,weatherlink.com 1.10,2013-01-13 15:46:00,
2013-01-13 11:01:00,31.9,27.0,29.98,NNW,334,6.0,10.0,82,0.00,,,0.23,weatherlink.com 1.10,2013-01-13 16:01:00,
2013-01-13 11:16:00,31.3,27.0,29.97,WNW,295,5.0,10.0,83,0.00,,,0.23,weatherlink.com 1.10,2013-01-13 16:16:00,
2013-01-13 11:31:00,31.3,26.0,29.91,NNW,342,0.0,3.0,82,0.00,,,0.23,weatherlink.com 1.10,2013-01-13 16:31:00,
2013-01-13 11:46:00,31.6,27.0,29.93,NNW,332,0.0,5.0,82,0.00,,,0.23,weatherlink.com 1.10,2013-01-13 16:46:00,
2013-01-13 12:01:00,31.6,27.0,29.96,WNW,294,5.0,7.0,83,0.00,,,0.23,weatherlink.com 1.10,2013-01-13 17:01:00,
2013-01-13 12:16:00,31.3,27.0,29.97,WNW,292,0.0,6.0,84,0.00,,,0.23,weatherlink.com 1.10,2013-01-13 17:16:00,
2013-01-13 12:31:00,31.3,27.0,29.96,NW,322,3.0,5.0,84,0.00,,,0.23,weatherlink.com 1.10,2013-01-13 17:31:00,
2013-01-13 12:46:00,31.2,27.0,29.95,WNW,302,3.0,7.0,85,0.00,,,0.23,weatherlink.com 1.10,2013-01-13 17:46:00,
2013-01-13 13:01:00,31.0,27.0,29.94,West,276,0.0,7.0,85,0.00,,,0.23,weatherlink.com 1.10,2013-01-13 18:01:00,
2013-01-13 13:16:00,30.8,27.0,29.94,NNW,333,4.0,7.0,84,0.00,,,0.23,weatherlink.com 1.10,2013-01-13 18:16:00,
2013-01-13 13:31:00,30.7,26.0,29.91,North,354,0.0,5.0,84,0.00,,,0.23,weatherlink.com 1.10,2013-01-13 18:31:00,
2013-01-13 13:46:00,30.6,26.0,29.92,WNW,284,0.0,0.0,83,0.00,,,0.23,weatherlink.com 1.10,2013-01-13 18:46:00,
2013-01-13 14:01:00,30.6,26.0,29.93,WNW,298,0.0,5.0,83,0.00,,,0.23,weatherlink.com 1.10,2013-01-13 19:01:00,
2013-01-13 14:16:00,30.8,27.0,29.95,NNW,328,0.0,6.0,84,0.00,,,0.23,weatherlink.com 1.10,2013-01-13 19:16:00,
2013-01-13 14:31:00,30.7,27.0,29.96,West,267,4.0,7.0,86,0.00,,,0.23,weatherlink.com 1.10,2013-01-13 19:31:00,
2013-01-13 14:46:00,30.7,27.0,29.98,West,281,3.0,6.0,85,0.00,,,0.23,weatherlink.com 1.10,2013-01-13 19:46:00,
2013-01-13 15:01:00,30.6,27.0,29.97,NW,314,3.0,9.0,86,0.00,,,0.23,weatherlink.com 1.10,2013-01-13 20:01:00,
2013-01-13 15:16:00,30.5,27.0,29.95,NW,307,0.0,7.0,85,0.00,,,0.23,weatherlink.com 1.10,2013-01-13 20:16:00,
2013-01-13 15:32:00,30.2,26.0,29.94,NW,326,4.0,8.0,85,0.00,,,0.23,weatherlink.com 1.10,2013-01-13 20:32:00,
2013-01-13 15:47:00,29.9,26.0,29.95,NW,310,2.0,7.0,85,0.00,,,0.23,weatherlink.com 1.10,2013-01-13 20:47:00,
2013-01-13 16:02:00,29.8,26.0,29.98,NW,323,2.0,7.0,86,0.00,,,0.23,weatherlink.com 1.10,2013-01-13 21:02:00,
2013-01-13 16:17:00,29.4,26.0,29.97,NW,304,0.0,6.0,86,0.00,,,0.23,weatherlink.com 1.10,2013-01-13 21:17:00,
2013-01-13 16:32:00,29.2,26.0,29.98,NW,322,3.0,5.0,87,0.00,,,0.23,weatherlink.com 1.10,2013-01-13 21:32:00,
2013-01-13 16:47:00,29.0,25.0,29.98,West,266,1.0,3.0,86,0.00,,,0.23,weatherlink.com 1.10,2013-01-13 21:47:00,
2013-01-13 17:02:00,29.3,26.0,29.96,West,265,0.0,3.0,86,0.00,,,0.23,weatherlink.com 1.10,2013-01-13 22:02:00,
2013-01-13 17:17:00,29.2,26.0,29.96,West,266,0.0,6.0,87,0.00,,,0.23,weatherlink.com 1.10,2013-01-13 22:17:00,
2013-01-13 17:32:00,29.3,26.0,29.99,WSW,252,4.0,8.0,86,0.00,,,0.23,weatherlink.com 1.10,2013-01-13 22:32:00,
2013-01-13 17:47:00,29.0,25.0,29.99,WSW,243,5.0,8.0,86,0.00,,,0.23,weatherlink.com 1.10,2013-01-13 22:47:00,
2013-01-13 18:17:00,28.5,25.0,30.00,WNW,286,1.0,9.0,86,0.00,,,0.23,weatherlink.com 1.10,2013-01-13 23:17:00,
2013-01-13 18:32:00,28.4,25.0,30.01,NW,304,5.0,11.0,86,0.00,,,0.23,weatherlink.com 1.10,2013-01-13 23:32:00,
2013-01-13 18:47:00,28.2,25.0,30.02,WNW,295,5.0,10.0,86,0.00,,,0.23,weatherlink.com 1.10,2013-01-13 23:47:00,
2013-01-13 19:02:00,28.0,24.0,30.04,WSW,255,12.0,12.0,84,0.00,,,0.23,weatherlink.com 1.10,2013-01-14 00:02:00,
2013-01-13 19:17:00,27.7,24.0,30.03,West,270,0.0,11.0,84,0.00,,,0.23,weatherlink.com 1.10,2013-01-14 00:17:00,
2013-01-13 19:32:00,27.7,24.0,30.04,West,271,4.0,14.0,84,0.00,,,0.23,weatherlink.com 1.10,2013-01-14 00:32:00,
2013-01-13 19:47:00,27.7,24.0,30.05,WNW,286,4.0,9.0,84,0.00,,,0.23,weatherlink.com 1.10,2013-01-14 00:47:00,
2013-01-13 20:02:00,27.4,23.0,30.05,West,266,2.0,11.0,83,0.00,,,0.23,weatherlink.com 1.10,2013-01-14 01:02:00,
2013-01-13 20:17:00,27.2,23.0,30.05,WNW,299,3.0,11.0,83,0.00,,,0.23,weatherlink.com 1.10,2013-01-14 01:17:00,
2013-01-13 20:48:00,27.1,22.0,30.06,WNW,300,1.0,11.0,82,0.00,,,0.23,weatherlink.com 1.10,2013-01-14 01:48:00,
2013-01-13 21:03:00,26.8,22.0,30.07,SW,231,3.0,15.0,81,0.00,,,0.23,weatherlink.com 1.10,2013-01-14 02:03:00,
2013-01-13 21:18:00,26.6,22.0,30.07,West,278,6.0,14.0,81,0.00,,,0.23,weatherlink.com 1.10,2013-01-14 02:18:00,
2013-01-13 21:33:00,26.2,21.0,30.09,West,259,6.0,15.0,81,0.00,,,0.23,weatherlink.com 1.10,2013-01-14 02:33:00,
2013-01-13 21:48:00,26.0,21.0,30.08,West,278,6.0,15.0,81,0.00,,,0.23,weatherlink.com 1.10,2013-01-14 02:48:00,
2013-01-13 22:03:00,25.7,21.0,30.09,WNW,294,4.0,12.0,82,0.00,,,0.23,weatherlink.com 1.10,2013-01-14 03:03:00,
2013-01-13 22:18:00,25.5,20.0,30.09,West,267,6.0,15.0,81,0.00,,,0.23,weatherlink.com 1.10,2013-01-14 03:18:00,
2013-01-13 22:33:00,25.5,20.0,30.10,WNW,302,9.0,13.0,80,0.00,,,0.23,weatherlink.com 1.10,2013-01-14 03:33:00,
2013-01-13 22:48:00,25.3,20.0,30.11,WNW,293,6.0,15.0,80,0.00,,,0.23,weatherlink.com 1.10,2013-01-14 03:48:00,
2013-01-13 23:03:00,25.3,20.0,30.11,West,262,7.0,11.0,80,0.00,,,0.23,weatherlink.com 1.10,2013-01-14 04:03:00,
2013-01-13 23:18:00,25.0,20.0,30.12,West,268,5.0,16.0,81,0.00,,,0.23,weatherlink.com 1.10,2013-01-14 04:18:00,
2013-01-13 23:33:00,24.8,20.0,30.13,WNW,286,2.0,13.0,81,0.00,,,0.23,weatherlink.com 1.10,2013-01-14 04:33:00,
2013-01-13 23:48:00,24.6,20.0,30.13,WSW,250,10.0,12.0,81,0.00,,,0.23,weatherlink.com 1.10,2013-01-14 04:48:00,